sensor_id;sensor_type;location;lat;lon;timestamp;pressure;altitude;pressure_sealevel;temperature;humidity
54876;BME280;40764;48.472;8.166;2023-12-07T00:05:25;98574.34;;;2.70;99.59
54876;BME280;40764;48.472;8.166;2023-12-07T00:11:26;98573.38;;;2.76;99.41
54876;BME280;40764;48.472;8.166;2023-12-07T00:17:26;98575.78;;;3.13;98.45
54876;BME280;40764;48.472;8.166;2023-12-07T00:23:26;98572.09;;;2.78;97.50
54876;BME280;40764;48.472;8.166;2023-12-07T00:29:27;98575.97;;;2.36;100.00
54876;BME280;40764;48.472;8.166;2023-12-07T00:35:27;98578.69;;;2.71;100.00
54876;BME280;40764;48.472;8.166;2023-12-07T00:41:28;98590.97;;;2.55;100.00
54876;BME280;40764;48.472;8.166;2023-12-07T00:47:29;98587.94;;;2.40;99.78
54876;BME280;40764;48.472;8.166;2023-12-07T00:53:29;98594.97;;;2.41;100.00
54876;BME280;40764;48.472;8.166;2023-12-07T00:59:29;98597.56;;;2.59;100.00
54876;BME280;40764;48.472;8.166;2023-12-07T01:05:33;98602.84;;;2.66;99.50
54876;BME280;40764;48.472;8.166;2023-12-07T01:11:34;98602.72;;;2.72;100.00
54876;BME280;40764;48.472;8.166;2023-12-07T01:17:34;98602.03;;;2.65;100.00
54876;BME280;40764;48.472;8.166;2023-12-07T01:23:34;98610.25;;;2.70;99.00
54876;BME280;40764;48.472;8.166;2023-12-07T01:29:34;98612.47;;;2.38;99.57
54876;BME280;40764;48.472;8.166;2023-12-07T01:35:35;98610.63;;;2.09;100.00
54876;BME280;40764;48.472;8.166;2023-12-07T01:41:35;98613.22;;;2.04;100.00
54876;BME280;40764;48.472;8.166;2023-12-07T01:47:36;98604.31;;;2.15;99.48
54876;BME280;40764;48.472;8.166;2023-12-07T01:53:39;98599.44;;;1.94;99.47
54876;BME280;40764;48.472;8.166;2023-12-07T01:59:39;98601.41;;;1.86;99.56
54876;BME280;40764;48.472;8.166;2023-12-07T02:05:43;98595.53;;;1.78;100.00
54876;BME280;40764;48.472;8.166;2023-12-07T02:11:43;98601.41;;;1.57;100.00
54876;BME280;40764;48.472;8.166;2023-12-07T02:24:02;98607.06;;;1.97;100.00
54876;BME280;40764;48.472;8.166;2023-12-07T02:30:03;98612.09;;;1.63;99.96
54876;BME280;40764;48.472;8.166;2023-12-07T02:36:04;98609.25;;;1.76;100.00
54876;BME280;40764;48.472;8.166;2023-12-07T02:42:05;98605.50;;;1.77;99.36
54876;BME280;40764;48.472;8.166;2023-12-07T02:48:07;98609.00;;;1.78;100.00
54876;BME280;40764;48.472;8.166;2023-12-07T02:54:07;98600.28;;;1.64;100.00
54876;BME280;40764;48.472;8.166;2023-12-07T03:00:08;98591.84;;;1.72;99.16
54876;BME280;40764;48.472;8.166;2023-12-07T03:06:08;98597.94;;;1.68;98.49
54876;BME280;40764;48.472;8.166;2023-12-07T03:12:09;98600.53;;;1.44;99.22
54876;BME280;40764;48.472;8.166;2023-12-07T03:18:09;98605.19;;;1.37;100.00
54876;BME280;40764;48.472;8.166;2023-12-07T03:24:10;98615.13;;;1.37;100.00
54876;BME280;40764;48.472;8.166;2023-12-07T03:30:11;98619.19;;;1.46;100.00
54876;BME280;40764;48.472;8.166;2023-12-07T03:36:11;98627.88;;;1.30;99.63
54876;BME280;40764;48.472;8.166;2023-12-07T03:42:12;98628.75;;;1.42;100.00
54876;BME280;40764;48.472;8.166;2023-12-07T03:48:12;98624.06;;;1.19;99.37
54876;BME280;40764;48.472;8.166;2023-12-07T03:54:13;98619.72;;;1.18;100.00
54876;BME280;40764;48.472;8.166;2023-12-07T04:00:13;98616.06;;;0.94;100.00
54876;BME280;40764;48.472;8.166;2023-12-07T04:06:13;98614.41;;;0.93;100.00
54876;BME280;40764;48.472;8.166;2023-12-07T04:12:14;98618.75;;;0.94;99.49
54876;BME280;40764;48.472;8.166;2023-12-07T04:18:14;98613.66;;;1.04;99.91
54876;BME280;40764;48.472;8.166;2023-12-07T04:24:14;98623.16;;;0.88;99.48
54876;BME280;40764;48.472;8.166;2023-12-07T04:30:14;98601.63;;;0.88;99.56
54876;BME280;40764;48.472;8.166;2023-12-07T04:36:15;98616.38;;;0.61;99.39
54876;BME280;40764;48.472;8.166;2023-12-07T04:42:15;98626.09;;;0.62;99.89
54876;BME280;40764;48.472;8.166;2023-12-07T04:48:15;98622.84;;;0.53;99.24
54876;BME280;40764;48.472;8.166;2023-12-07T04:54:15;98612.50;;;0.32;100.00
54876;BME280;40764;48.472;8.166;2023-12-07T05:00:16;98615.00;;;0.27;98.96
54876;BME280;40764;48.472;8.166;2023-12-07T05:06:16;98618.78;;;0.44;99.83
54876;BME280;40764;48.472;8.166;2023-12-07T05:12:17;98610.84;;;0.31;99.50
54876;BME280;40764;48.472;8.166;2023-12-07T05:18:17;98613.69;;;0.36;99.34
54876;BME280;40764;48.472;8.166;2023-12-07T05:24:18;98603.97;;;0.10;99.17
54876;BME280;40764;48.472;8.166;2023-12-07T05:30:18;98609.13;;;0.12;98.50
54876;BME280;40764;48.472;8.166;2023-12-07T05:36:19;98607.66;;;0.16;98.14
54876;BME280;40764;48.472;8.166;2023-12-07T05:42:19;98619.34;;;-0.04;98.99
54876;BME280;40764;48.472;8.166;2023-12-07T05:48:19;98624.16;;;-0.12;98.40
54876;BME280;40764;48.472;8.166;2023-12-07T05:54:20;98634.06;;;-0.06;98.06
54876;BME280;40764;48.472;8.166;2023-12-07T06:00:23;98622.25;;;-0.05;97.18
54876;BME280;40764;48.472;8.166;2023-12-07T06:06:23;98620.44;;;-0.11;98.02
54876;BME280;40764;48.472;8.166;2023-12-07T06:12:24;98622.69;;;-0.08;97.39
54876;BME280;40764;48.472;8.166;2023-12-07T06:18:24;98623.06;;;0.02;97.07
54876;BME280;40764;48.472;8.166;2023-12-07T06:24:25;98633.41;;;-0.02;96.96
54876;BME280;40764;48.472;8.166;2023-12-07T06:30:25;98624.06;;;0.08;96.52
54876;BME280;40764;48.472;8.166;2023-12-07T06:36:26;98620.53;;;-0.24;97.20
54876;BME280;40764;48.472;8.166;2023-12-07T06:42:27;98623.19;;;-0.18;96.76
54876;BME280;40764;48.472;8.166;2023-12-07T06:48:27;98635.19;;;-0.20;96.86
54876;BME280;40764;48.472;8.166;2023-12-07T06:54:27;98607.44;;;-0.14;96.50
54876;BME280;40764;48.472;8.166;2023-12-07T07:00:27;98605.53;;;-0.39;97.07
54876;BME280;40764;48.472;8.166;2023-12-07T07:06:28;98609.41;;;-0.28;96.65
54876;BME280;40764;48.472;8.166;2023-12-07T07:12:28;98607.72;;;-0.22;96.66
54876;BME280;40764;48.472;8.166;2023-12-07T07:18:29;98597.69;;;-0.40;96.98
54876;BME280;40764;48.472;8.166;2023-12-07T07:24:29;98604.63;;;-0.26;96.38
54876;BME280;40764;48.472;8.166;2023-12-07T07:30:30;98588.84;;;-0.47;96.75
54876;BME280;40764;48.472;8.166;2023-12-07T07:36:30;98587.69;;;-0.65;98.35
54876;BME280;40764;48.472;8.166;2023-12-07T07:42:31;98593.22;;;-0.21;97.23
54876;BME280;40764;48.472;8.166;2023-12-07T07:48:31;98606.34;;;-0.07;96.90
54876;BME280;40764;48.472;8.166;2023-12-07T07:54:32;98613.03;;;0.16;95.49
54876;BME280;40764;48.472;8.166;2023-12-07T08:00:32;98615.19;;;0.32;95.44
54876;BME280;40764;48.472;8.166;2023-12-07T08:06:33;98623.66;;;0.54;94.11
54876;BME280;40764;48.472;8.166;2023-12-07T08:12:34;98599.59;;;0.41;94.84
54876;BME280;40764;48.472;8.166;2023-12-07T08:18:35;98603.97;;;0.60;95.26
54876;BME280;40764;48.472;8.166;2023-12-07T08:24:39;98612.47;;;1.00;93.78
54876;BME280;40764;48.472;8.166;2023-12-07T08:30:39;98593.28;;;0.72;93.61
54876;BME280;40764;48.472;8.166;2023-12-07T08:36:39;98595.75;;;0.73;95.05
54876;BME280;40764;48.472;8.166;2023-12-07T08:42:40;98602.31;;;0.59;95.52
54876;BME280;40764;48.472;8.166;2023-12-07T08:48:40;98597.41;;;0.74;95.87
54876;BME280;40764;48.472;8.166;2023-12-07T08:54:40;98595.69;;;0.80;95.17
54876;BME280;40764;48.472;8.166;2023-12-07T09:00:40;98578.38;;;0.94;95.15
54876;BME280;40764;48.472;8.166;2023-12-07T09:06:41;98560.53;;;1.11;93.98
54876;BME280;40764;48.472;8.166;2023-12-07T09:12:41;98558.38;;;1.20;93.74
54876;BME280;40764;48.472;8.166;2023-12-07T09:18:42;98551.81;;;1.16;94.44
54876;BME280;40764;48.472;8.166;2023-12-07T09:24:42;98543.31;;;1.31;93.79
54876;BME280;40764;48.472;8.166;2023-12-07T09:30:43;98536.66;;;1.33;94.06
54876;BME280;40764;48.472;8.166;2023-12-07T09:36:45;98542.63;;;1.65;92.90
54876;BME280;40764;48.472;8.166;2023-12-07T09:42:46;98534.38;;;1.48;94.51
54876;BME280;40764;48.472;8.166;2023-12-07T09:48:48;98537.00;;;1.37;94.75
54876;BME280;40764;48.472;8.166;2023-12-07T09:54:51;98534.66;;;1.59;94.69
54876;BME280;40764;48.472;8.166;2023-12-07T10:00:52;98521.34;;;1.75;94.59
54876;BME280;40764;48.472;8.166;2023-12-07T10:06:53;98523.81;;;1.89;95.33
54876;BME280;40764;48.472;8.166;2023-12-07T10:12:55;98510.97;;;2.14;95.26
54876;BME280;40764;48.472;8.166;2023-12-07T10:19:12;98512.59;;;2.50;94.02
54876;BME280;40764;48.472;8.166;2023-12-07T10:25:14;98501.22;;;2.60;95.05
54876;BME280;40764;48.472;8.166;2023-12-07T10:31:18;98481.00;;;2.74;95.49
54876;BME280;40764;48.472;8.166;2023-12-07T10:37:18;98459.38;;;2.86;95.18
54876;BME280;40764;48.472;8.166;2023-12-07T10:43:19;98456.34;;;3.10;94.85
54876;BME280;40764;48.472;8.166;2023-12-07T10:49:21;98427.28;;;3.29;94.75
54876;BME280;40764;48.472;8.166;2023-12-07T10:55:28;98419.00;;;3.19;94.94
54876;BME280;40764;48.472;8.166;2023-12-07T11:01:30;98413.63;;;3.69;94.15
54876;BME280;40764;48.472;8.166;2023-12-07T11:08:05;98392.50;;;3.50;93.72
54876;BME280;40764;48.472;8.166;2023-12-07T11:14:09;98391.00;;;3.42;95.63
54876;BME280;40764;48.472;8.166;2023-12-07T11:26:37;98369.97;;;4.16;93.61
54876;BME280;40764;48.472;8.166;2023-12-07T11:32:38;98351.16;;;4.26;93.73
54876;BME280;40764;48.472;8.166;2023-12-07T11:44:59;98313.28;;;4.26;93.38
54876;BME280;40764;48.472;8.166;2023-12-07T11:51:01;98304.03;;;4.44;92.52
54876;BME280;40764;48.472;8.166;2023-12-07T11:57:01;98293.75;;;4.68;90.64
54876;BME280;40764;48.472;8.166;2023-12-07T12:03:02;98289.25;;;4.79;89.28
54876;BME280;40764;48.472;8.166;2023-12-07T12:09:02;98271.25;;;4.68;90.05
54876;BME280;40764;48.472;8.166;2023-12-07T12:15:03;98279.13;;;4.69;88.59
54876;BME280;40764;48.472;8.166;2023-12-07T12:21:05;98272.81;;;4.90;87.11
54876;BME280;40764;48.472;8.166;2023-12-07T12:27:06;98269.75;;;5.09;83.74
54876;BME280;40764;48.472;8.166;2023-12-07T12:33:07;98263.97;;;5.00;84.97
54876;BME280;40764;48.472;8.166;2023-12-07T12:39:07;98281.72;;;5.18;83.50
54876;BME280;40764;48.472;8.166;2023-12-07T12:45:08;98270.63;;;5.19;81.72
54876;BME280;40764;48.472;8.166;2023-12-07T12:51:13;98287.50;;;5.26;80.58
54876;BME280;40764;48.472;8.166;2023-12-07T12:57:14;98276.66;;;5.26;81.80
54876;BME280;40764;48.472;8.166;2023-12-07T13:03:14;98269.00;;;5.18;81.73
54876;BME280;40764;48.472;8.166;2023-12-07T13:09:14;98257.50;;;5.01;83.02
54876;BME280;40764;48.472;8.166;2023-12-07T13:15:17;98245.81;;;4.69;85.26
54876;BME280;40764;48.472;8.166;2023-12-07T13:21:17;98244.56;;;4.81;84.79
54876;BME280;40764;48.472;8.166;2023-12-07T13:27:17;98248.13;;;4.87;83.83
54876;BME280;40764;48.472;8.166;2023-12-07T13:33:18;98267.91;;;4.87;82.95
54876;BME280;40764;48.472;8.166;2023-12-07T13:39:18;98266.44;;;4.48;84.32
54876;BME280;40764;48.472;8.166;2023-12-07T13:45:21;98252.97;;;4.31;87.11
54876;BME280;40764;48.472;8.166;2023-12-07T13:51:21;98244.63;;;4.59;87.19
54876;BME280;40764;48.472;8.166;2023-12-07T13:57:23;98232.63;;;4.77;85.52
54876;BME280;40764;48.472;8.166;2023-12-07T14:03:27;98212.31;;;4.48;84.77
54876;BME280;40764;48.472;8.166;2023-12-07T14:09:27;98193.28;;;4.16;85.23
54876;BME280;40764;48.472;8.166;2023-12-07T14:15:28;98192.53;;;4.20;84.35
54876;BME280;40764;48.472;8.166;2023-12-07T14:21:28;98172.31;;;3.79;86.70
54876;BME280;40764;48.472;8.166;2023-12-07T14:27:28;98158.59;;;3.42;87.81
54876;BME280;40764;48.472;8.166;2023-12-07T14:33:28;98132.56;;;3.36;90.04
54876;BME280;40764;48.472;8.166;2023-12-07T14:39:29;98135.91;;;3.87;89.62
54876;BME280;40764;48.472;8.166;2023-12-07T14:45:29;98124.00;;;3.88;89.22
54876;BME280;40764;48.472;8.166;2023-12-07T14:51:30;98118.41;;;3.72;90.02
54876;BME280;40764;48.472;8.166;2023-12-07T14:57:30;98118.88;;;3.64;90.98
54876;BME280;40764;48.472;8.166;2023-12-07T15:03:31;98133.25;;;3.70;90.81
54876;BME280;40764;48.472;8.166;2023-12-07T15:09:32;98139.41;;;3.43;90.81
54876;BME280;40764;48.472;8.166;2023-12-07T15:15:35;98128.22;;;3.13;91.99
54876;BME280;40764;48.472;8.166;2023-12-07T15:21:35;98116.66;;;2.79;94.17
54876;BME280;40764;48.472;8.166;2023-12-07T15:27:37;98115.25;;;2.93;93.72
54876;BME280;40764;48.472;8.166;2023-12-07T15:33:37;98095.22;;;2.72;94.07
54876;BME280;40764;48.472;8.166;2023-12-07T15:39:39;98077.47;;;2.76;93.92
54876;BME280;40764;48.472;8.166;2023-12-07T15:45:40;98062.91;;;2.77;93.85
54876;BME280;40764;48.472;8.166;2023-12-07T15:51:40;98038.47;;;2.67;94.71
54876;BME280;40764;48.472;8.166;2023-12-07T15:57:41;98038.16;;;2.64;94.14
54876;BME280;40764;48.472;8.166;2023-12-07T16:03:41;98031.47;;;2.49;94.90
54876;BME280;40764;48.472;8.166;2023-12-07T16:09:41;98024.34;;;2.60;94.01
54876;BME280;40764;48.472;8.166;2023-12-07T16:15:42;98029.00;;;2.65;94.34
54876;BME280;40764;48.472;8.166;2023-12-07T16:21:42;98027.13;;;2.65;94.43
54876;BME280;40764;48.472;8.166;2023-12-07T16:27:43;98013.50;;;2.38;94.83
54876;BME280;40764;48.472;8.166;2023-12-07T16:33:43;98003.78;;;2.21;95.75
54876;BME280;40764;48.472;8.166;2023-12-07T16:39:43;97991.50;;;2.46;94.72
54876;BME280;40764;48.472;8.166;2023-12-07T16:45:44;97994.72;;;2.65;93.89
54876;BME280;40764;48.472;8.166;2023-12-07T16:51:46;97992.22;;;2.80;92.58
54876;BME280;40764;48.472;8.166;2023-12-07T16:57:49;97981.16;;;2.60;92.60
54876;BME280;40764;48.472;8.166;2023-12-07T17:03:49;97973.47;;;2.52;93.67
54876;BME280;40764;48.472;8.166;2023-12-07T17:09:49;97975.28;;;2.46;92.51
54876;BME280;40764;48.472;8.166;2023-12-07T17:15:51;97963.19;;;2.49;92.47
54876;BME280;40764;48.472;8.166;2023-12-07T17:21:52;97932.44;;;2.50;91.37
54876;BME280;40764;48.472;8.166;2023-12-07T17:27:52;97937.59;;;2.52;91.75
54876;BME280;40764;48.472;8.166;2023-12-07T17:33:52;97938.97;;;2.54;90.87
54876;BME280;40764;48.472;8.166;2023-12-07T17:39:53;97942.16;;;2.51;90.34
54876;BME280;40764;48.472;8.166;2023-12-07T17:45:57;97920.03;;;2.10;92.19
54876;BME280;40764;48.472;8.166;2023-12-07T17:51:57;97914.53;;;2.22;93.36
54876;BME280;40764;48.472;8.166;2023-12-07T17:57:57;97915.00;;;2.36;93.52
54876;BME280;40764;48.472;8.166;2023-12-07T18:03:58;97913.28;;;2.30;93.96
54876;BME280;40764;48.472;8.166;2023-12-07T18:09:58;97900.28;;;2.27;93.77
54876;BME280;40764;48.472;8.166;2023-12-07T18:15:58;97905.88;;;2.20;94.51
54876;BME280;40764;48.472;8.166;2023-12-07T18:21:59;97903.16;;;2.20;94.91
54876;BME280;40764;48.472;8.166;2023-12-07T18:27:59;97906.25;;;1.90;96.08
54876;BME280;40764;48.472;8.166;2023-12-07T18:34:00;97902.41;;;2.03;96.67
54876;BME280;40764;48.472;8.166;2023-12-07T18:40:00;97906.88;;;2.14;96.37
54876;BME280;40764;48.472;8.166;2023-12-07T18:46:01;97915.03;;;2.02;97.24
54876;BME280;40764;48.472;8.166;2023-12-07T18:52:05;97905.94;;;2.25;97.13
54876;BME280;40764;48.472;8.166;2023-12-07T18:58:06;97905.06;;;2.20;97.48
54876;BME280;40764;48.472;8.166;2023-12-07T19:04:06;97905.81;;;2.15;96.79
54876;BME280;40764;48.472;8.166;2023-12-07T19:10:07;97915.91;;;2.25;96.52
54876;BME280;40764;48.472;8.166;2023-12-07T19:16:08;97918.41;;;2.31;96.67
54876;BME280;40764;48.472;8.166;2023-12-07T19:22:09;97899.22;;;2.06;96.69
54876;BME280;40764;48.472;8.166;2023-12-07T19:28:10;97884.09;;;1.88;98.57
54876;BME280;40764;48.472;8.166;2023-12-07T19:34:10;97874.84;;;2.01;97.19
54876;BME280;40764;48.472;8.166;2023-12-07T19:40:11;97851.34;;;1.96;97.29
54876;BME280;40764;48.472;8.166;2023-12-07T19:46:16;97842.72;;;1.77;98.05
54876;BME280;40764;48.472;8.166;2023-12-07T19:52:16;97847.41;;;2.04;98.35
54876;BME280;40764;48.472;8.166;2023-12-07T19:58:17;97852.50;;;2.22;97.74
54876;BME280;40764;48.472;8.166;2023-12-07T20:04:17;97842.16;;;2.14;97.74
54876;BME280;40764;48.472;8.166;2023-12-07T20:10:18;97836.22;;;1.95;98.73
54876;BME280;40764;48.472;8.166;2023-12-07T20:16:19;97812.34;;;2.26;97.48
54876;BME280;40764;48.472;8.166;2023-12-07T20:22:19;97808.78;;;2.42;96.47
54876;BME280;40764;48.472;8.166;2023-12-07T20:28:19;97799.41;;;2.49;95.66
54876;BME280;40764;48.472;8.166;2023-12-07T20:34:20;97783.06;;;2.34;95.39
54876;BME280;40764;48.472;8.166;2023-12-07T20:40:20;97765.69;;;2.25;97.41
54876;BME280;40764;48.472;8.166;2023-12-07T20:46:20;97759.25;;;2.04;98.18
54876;BME280;40764;48.472;8.166;2023-12-07T20:52:20;97746.25;;;2.23;97.87
54876;BME280;40764;48.472;8.166;2023-12-07T20:58:21;97735.03;;;2.09;97.26
54876;BME280;40764;48.472;8.166;2023-12-07T21:04:22;97724.31;;;2.14;97.83
54876;BME280;40764;48.472;8.166;2023-12-07T21:10:23;97710.88;;;2.20;97.57
54876;BME280;40764;48.472;8.166;2023-12-07T21:16:23;97703.25;;;2.11;98.46
54876;BME280;40764;48.472;8.166;2023-12-07T21:22:23;97695.13;;;2.33;97.09
54876;BME280;40764;48.472;8.166;2023-12-07T21:28:24;97689.06;;;2.21;97.17
54876;BME280;40764;48.472;8.166;2023-12-07T21:34:24;97670.91;;;2.38;97.52
54876;BME280;40764;48.472;8.166;2023-12-07T21:40:24;97658.00;;;2.18;97.55
54876;BME280;40764;48.472;8.166;2023-12-07T21:46:25;97639.34;;;2.12;98.53
54876;BME280;40764;48.472;8.166;2023-12-07T21:52:25;97635.53;;;2.35;98.95
54876;BME280;40764;48.472;8.166;2023-12-07T21:58:25;97629.88;;;2.36;97.25
54876;BME280;40764;48.472;8.166;2023-12-07T22:04:26;97623.50;;;2.21;99.07
54876;BME280;40764;48.472;8.166;2023-12-07T22:10:26;97598.94;;;2.49;97.91
54876;BME280;40764;48.472;8.166;2023-12-07T22:16:26;97579.09;;;2.60;97.22
54876;BME280;40764;48.472;8.166;2023-12-07T22:22:27;97580.94;;;2.97;96.35
54876;BME280;40764;48.472;8.166;2023-12-07T22:28:27;97605.41;;;3.27;92.95
54876;BME280;40764;48.472;8.166;2023-12-07T22:34:27;97606.84;;;2.93;94.68
54876;BME280;40764;48.472;8.166;2023-12-07T22:40:28;97615.75;;;2.93;94.50
54876;BME280;40764;48.472;8.166;2023-12-07T22:46:28;97623.31;;;2.96;95.02
54876;BME280;40764;48.472;8.166;2023-12-07T22:52:28;97611.09;;;3.31;94.60
54876;BME280;40764;48.472;8.166;2023-12-07T22:58:29;97610.72;;;3.17;93.35
54876;BME280;40764;48.472;8.166;2023-12-07T23:04:29;97605.16;;;2.87;94.93
54876;BME280;40764;48.472;8.166;2023-12-07T23:10:29;97594.09;;;2.88;95.18
54876;BME280;40764;48.472;8.166;2023-12-07T23:16:30;97587.13;;;2.92;95.87
54876;BME280;40764;48.472;8.166;2023-12-07T23:22:30;97566.25;;;2.83;93.92
54876;BME280;40764;48.472;8.166;2023-12-07T23:28:30;97557.25;;;2.67;96.55
54876;BME280;40764;48.472;8.166;2023-12-07T23:34:31;97527.75;;;2.55;97.78
54876;BME280;40764;48.472;8.166;2023-12-07T23:40:31;97522.09;;;3.04;97.29
54876;BME280;40764;48.472;8.166;2023-12-07T23:46:32;97508.00;;;2.92;95.87
54876;BME280;40764;48.472;8.166;2023-12-07T23:52:32;97496.09;;;2.88;97.06
54876;BME280;40764;48.472;8.166;2023-12-07T23:58:32;97496.41;;;2.91;97.25
